Orange City, IA

1:06 PM CST on February 08, 2016 (GMT -0600)
NWC Rec Center | | Change Station
CLOSE
Current Station
Personal Weather Station
Location: Orange City, IA
Elevation: 1411 ft
Nearby Weather Stations
Active Advisory: Winter Weather Advisory Active Notice: Public Information Statement

Elev 1411 ft 43.00 °N, 96.06 °W | Updated 12 seconds ago

Overcast
Overcast
18.8 °F
Feels Like 7 °F
N
10.4
Wind Variable Wind from NW
Gusts 12.0 mph

Today
High -- | Low -- °F
--% Chance of Precip.
Yesterday
High -- | Low -- °F
Precip. -- in
Pressure 30.10 in
Visibility 10.0 miles
Clouds Scattered Clouds 2400 ft
Mostly Cloudy 2900 ft
Overcast 3400 ft
Windchill 7 °F
Dew Point 19 °F
Humidity 100%
Rainfall 0.00 in
Snow Depth Not available.
7:31 AM 5:45 PM
New Moon, 0% visible
METAR KLRJ 081855Z AUTO 34019G29KT 10SM SCT024 BKN029 OVC034 M04/M08 A3010 RMK AO2
Pressure 30.10 in
Visibility 10.0 miles
Clouds Scattered Clouds 2400 ft
Mostly Cloudy 2900 ft
Overcast 3400 ft
Windchill 7 °F
Dew Point 19 °F
Humidity 100%
Rainfall 0.00 in
Snow Depth Not available.
7:31 AM 5:45 PM
New Moon, 0% visible
METAR KLRJ 081855Z AUTO 34019G29KT 10SM SCT024 BKN029 OVC034 M04/M08 A3010 RMK AO2

10-Day Weather Forecast

Almanac

Astronomy

Feb. 08, 2016 Rise Set
Actual Time
Civil Twilight
Nautical Twilight
Astronomical Twilight
Moon
Length of Visible Light
Length of Day
Tomorrow will be .
, % of the Moon is Illuminated

Today's Extremes

State Highs State Lows

Community

WunderPhotos

Upload Photos

1,891,485 photos uploaded!

WunderBlog® & News

Nearby

Air Quality

  Air Quality AQ Index Pollutant
Not available.

Snow Depth

Station Depth Elevation

Earthquake Activity

City Distance Mag. Time & Date
Minimum magnitude displayed is 2.5.

Coastal Water Temperatures

Place Temperature

Stations

Nearby Weather Stations

Station Location Temp. Windchill Dew Point Humidity Wind Precip. Elev Updated Type
                   

Watches & Warnings

Winter Weather Advisory
Issued: 9:19 AM CST Feb. 8, 2016 – National Weather Service

... Winter Weather Advisory now in effect until 6 PM CST this
evening...

* timing... light snow will gradually taper off by early afternoon... but
areas of blowing snow will continue.

* Accumulations... little additional accumulation is expected
today.

* Wind and visibility... northwest winds of 25 to 35 mph with gusts
to 45 mph will persist into the afternoon hours. With a half an
inch of new snow in many locations... this will create periods of
reduced visibility and slick driving conditions.

* Impacts... travel will be very difficult... travel will begin to
improve by sunset.

Precautionary/preparedness actions...

A Winter Weather Advisory for blowing snow means that
visibilities will be limited due to strong winds blowing snow
around. Use caution when traveling... especially in open areas.